Time;durP1;ratioP1;P1;durP2;ratioP2;P2;SDS_P1;SDS_P2;PMS_P1;PMS_P2;Temp;Humidity;BMP_temperature;BMP_pressure;BME280_temperature;BME280_humidity;BME280_pressure;Samples;Min_cycle;Max_cycle;Signal;HPM_P1;HPM_P2
2021/07/03 00:00:34;;;;;;;10.55;9.48;;;15.60;99.90;;;;;;5055118;28;20028;-77
2021/07/03 00:03:00;;;;;;;10.63;9.43;;;15.60;99.90;;;;;;5055871;28;20551;-79
2021/07/03 00:05:25;;;;;;;9.80;8.80;;;15.60;99.90;;;;;;5056979;28;20025;-80
2021/07/03 00:07:51;;;;;;;11.80;9.38;;;15.50;99.90;;;;;;5055047;28;20021;-78
2021/07/03 00:10:17;;;;;;;11.57;9.13;;;15.50;99.90;;;;;;5056569;28;20078;-76
2021/07/03 00:12:43;;;;;;;12.23;9.25;;;15.50;99.90;;;;;;5056475;28;20025;-78
2021/07/03 00:15:16;;;;;;;10.63;8.27;;;15.50;99.90;;;;;;5055365;28;20028;-78
2021/07/03 00:17:41;;;;;;;10.50;8.63;;;15.50;99.90;;;;;;5055123;28;20114;-78
2021/07/03 00:20:11;;;;;;;10.18;9.07;;;15.40;99.90;;;;;;5039183;28;20021;-79
2021/07/03 00:22:37;;;;;;;9.20;8.30;;;15.40;99.90;;;;;;5056819;28;20095;-77
2021/07/03 00:25:05;;;;;;;10.27;9.23;;;15.40;99.90;;;;;;5057618;28;20497;-76
2021/07/03 00:27:30;;;;;;;9.70;8.73;;;15.40;99.90;;;;;;5057054;28;20494;-78
2021/07/03 00:29:56;;;;;;;10.93;9.13;;;15.50;99.90;;;;;;5054927;28;20040;-77
2021/07/03 00:32:22;;;;;;;9.38;8.48;;;15.50;99.90;;;;;;5056938;28;20020;-78
2021/07/03 00:34:49;;;;;;;13.60;8.35;;;15.50;99.90;;;;;;5054354;28;20086;-78
2021/07/03 00:37:15;;;;;;;8.70;7.88;;;15.40;99.90;;;;;;5054237;28;20117;-78
2021/07/03 00:39:40;;;;;;;10.23;9.25;;;15.40;99.90;;;;;;5020371;28;20049;-78
2021/07/03 00:42:06;;;;;;;9.60;8.60;;;15.40;99.90;;;;;;5054975;28;20017;-78
2021/07/03 00:44:33;;;;;;;11.02;9.43;;;15.40;99.90;;;;;;5054629;28;20049;-78
2021/07/03 00:47:02;;;;;;;9.63;8.63;;;15.40;99.90;;;;;;5037259;28;20025;-78
2021/07/03 00:49:27;;;;;;;10.52;8.52;;;15.30;99.90;;;;;;5055001;28;20051;-78
2021/07/03 00:51:53;;;;;;;11.40;9.38;;;15.30;99.90;;;;;;5054867;28;20482;-78
2021/07/03 00:54:21;;;;;;;9.27;8.32;;;15.30;99.90;;;;;;5054971;28;20129;-77
2021/07/03 00:57:03;;;;;;;9.32;8.20;;;15.20;99.90;;;;;;5054400;28;20025;-77
2021/07/03 00:59:34;;;;;;;10.82;8.95;;;15.20;99.90;;;;;;5036445;28;20021;-77
2021/07/03 01:02:00;;;;;;;11.20;9.25;;;15.10;99.90;;;;;;5055430;28;20013;-78
2021/07/03 01:04:26;;;;;;;10.05;8.82;;;15.10;99.90;;;;;;5055392;28;20025;-77
2021/07/03 01:06:51;;;;;;;11.63;8.57;;;15.10;99.90;;;;;;5053614;28;20474;-78
2021/07/03 01:09:17;;;;;;;9.90;8.90;;;15.10;99.90;;;;;;5054665;28;20036;-79
2021/07/03 01:11:42;;;;;;;11.20;8.88;;;15.10;99.90;;;;;;5037333;28;20528;-77
2021/07/03 01:14:08;;;;;;;10.18;8.85;;;15.10;99.90;;;;;;5053869;28;20070;-78
2021/07/03 01:16:34;;;;;;;10.52;9.00;;;15.00;99.90;;;;;;5054817;28;20053;-78
2021/07/03 01:19:00;;;;;;;11.02;8.70;;;15.00;1.00;;;;;;5054831;28;20371;-78
2021/07/03 01:21:26;;;;;;;11.05;8.98;;;14.90;1.00;;;;;;5054848;28;20063;-77
2021/07/03 01:23:52;;;;;;;10.77;9.32;;;14.90;1.00;;;;;;5054898;28;20447;-78
2021/07/03 01:26:17;;;;;;;9.38;8.48;;;14.90;1.00;;;;;;5054441;28;20025;-77
2021/07/03 01:28:43;;;;;;;9.52;8.50;;;14.90;1.00;;;;;;5054213;28;20103;-78
2021/07/03 01:31:08;;;;;;;11.27;9.30;;;14.90;1.00;;;;;;5055700;28;20040;-77
2021/07/03 01:33:35;;;;;;;10.30;9.32;;;14.80;1.00;;;;;;5054513;28;20017;-77
2021/07/03 01:36:00;;;;;;;11.15;9.48;;;14.90;1.00;;;;;;5054059;28;20041;-77
2021/07/03 01:38:27;;;;;;;10.73;9.63;;;14.90;1.00;;;;;;5036695;28;20111;-78
2021/07/03 01:40:53;;;;;;;10.23;9.20;;;14.80;1.00;;;;;;5053754;28;20025;-78
2021/07/03 01:43:23;;;;;;;11.00;8.57;;;14.80;1.00;;;;;;5036541;28;20091;-78
2021/07/03 01:45:50;;;;;;;11.95;9.18;;;14.80;1.00;;;;;;5054186;28;20120;-78
2021/07/03 01:48:27;;;;;;;10.40;8.98;;;14.80;1.00;;;;;;5053215;28;20029;-79
2021/07/03 01:50:53;;;;;;;11.73;10.10;;;14.70;1.00;;;;;;5053099;28;20029;-78
2021/07/03 01:53:19;;;;;;;10.38;9.27;;;14.70;1.00;;;;;;5054200;28;20479;-78
2021/07/03 01:55:45;;;;;;;11.45;9.43;;;14.70;1.00;;;;;;5052838;28;20025;-79
2021/07/03 01:58:22;;;;;;;13.25;9.63;;;14.70;1.00;;;;;;5054207;28;20032;-77
2021/07/03 02:00:50;;;;;;;10.95;9.80;;;14.60;1.00;;;;;;5053481;28;20060;-77
2021/07/03 02:03:16;;;;;;;10.57;9.50;;;14.70;1.00;;;;;;5053403;28;20115;-79
2021/07/03 02:05:43;;;;;;;12.38;9.27;;;14.60;1.00;;;;;;5053012;28;20063;-78
2021/07/03 02:08:08;;;;;;;10.60;9.57;;;14.50;1.00;;;;;;5053593;28;20021;-77
2021/07/03 02:10:34;;;;;;;14.05;10.38;;;14.50;1.00;;;;;;5053575;28;20103;-78
2021/07/03 02:13:00;;;;;;;11.73;9.57;;;14.50;1.00;;;;;;5054608;28;20021;-78
2021/07/03 02:15:25;;;;;;;10.95;9.07;;;14.50;1.00;;;;;;5035873;28;20188;-78
2021/07/03 02:17:51;;;;;;;13.20;9.85;;;14.50;1.00;;;;;;5053209;28;20478;-77
2021/07/03 02:20:16;;;;;;;13.75;9.23;;;14.40;1.00;;;;;;5035768;28;20025;-77
2021/07/03 02:22:42;;;;;;;12.25;10.95;;;14.40;1.00;;;;;;5053928;28;20044;-79
2021/07/03 02:25:09;;;;;;;10.30;9.30;;;14.40;1.00;;;;;;5053890;28;20025;-78
2021/07/03 02:27:34;;;;;;;12.07;8.80;;;14.40;1.00;;;;;;5036453;28;20036;-78
2021/07/03 02:30:01;;;;;;;12.98;9.73;;;14.40;1.00;;;;;;5053538;28;20025;-77
2021/07/03 02:32:27;;;;;;;16.08;9.88;;;14.40;1.00;;;;;;5053792;28;20074;-77
2021/07/03 02:34:53;;;;;;;13.63;10.38;;;14.40;1.00;;;;;;5052387;28;20025;-77
2021/07/03 02:37:18;;;;;;;14.43;9.68;;;14.30;1.00;;;;;;5052099;28;20033;-77
2021/07/03 02:39:44;;;;;;;12.15;8.95;;;14.40;1.00;;;;;;5053677;28;20470;-79
2021/07/03 02:42:10;;;;;;;13.20;9.65;;;14.40;1.00;;;;;;5051740;28;20121;-78
2021/07/03 02:44:35;;;;;;;13.20;10.32;;;14.40;1.00;;;;;;5053289;28;20028;-78
2021/07/03 02:47:01;;;;;;;10.75;9.65;;;14.60;1.00;;;;;;5051797;28;20029;-78
2021/07/03 02:49:27;;;;;;;11.68;9.95;;;14.70;1.00;;;;;;5035652;28;20033;-78
2021/07/03 02:51:53;;;;;;;9.98;9.07;;;14.80;1.00;;;;;;5053247;28;20489;-78
2021/07/03 02:54:18;;;;;;;11.52;10.32;;;14.70;1.00;;;;;;5053163;28;20039;-79
2021/07/03 02:56:44;;;;;;;11.75;10.55;;;14.60;1.00;;;;;;5052207;28;20025;-78
2021/07/03 02:59:09;;;;;;;11.10;10.10;;;14.70;1.00;;;;;;5054448;28;20013;-76
2021/07/03 03:01:35;;;;;;;10.75;9.60;;;14.70;1.00;;;;;;5053863;28;20021;-77
2021/07/03 03:04:00;;;;;;;10.85;9.85;;;14.60;1.00;;;;;;5051293;28;20108;-79
2021/07/03 03:06:26;;;;;;;11.48;10.27;;;14.70;1.00;;;;;;5052432;28;20029;-78
2021/07/03 03:08:52;;;;;;;10.52;9.43;;;14.60;1.00;;;;;;5051844;28;20025;-78
2021/07/03 03:11:18;;;;;;;11.18;10.07;;;14.60;1.00;;;;;;5034894;28;20036;-77
2021/07/03 03:13:43;;;;;;;11.60;10.13;;;14.40;1.00;;;;;;5051964;28;20033;-78
2021/07/03 03:16:09;;;;;;;14.95;9.90;;;14.30;1.00;;;;;;5052125;28;20032;-78
2021/07/03 03:18:35;;;;;;;11.48;9.98;;;14.30;1.00;;;;;;5053425;28;20025;-77
2021/07/03 03:21:00;;;;;;;13.50;9.85;;;14.30;1.00;;;;;;5035163;28;20021;-77
2021/07/03 03:23:26;;;;;;;13.40;10.15;;;14.20;1.00;;;;;;5056806;28;20103;-79
2021/07/03 03:25:52;;;;;;;10.80;9.77;;;14.20;1.00;;;;;;5055952;28;20690;-78
2021/07/03 03:28:18;;;;;;;13.05;9.80;;;14.20;1.00;;;;;;5038446;28;20040;-78
2021/07/03 03:30:43;;;;;;;13.10;10.10;;;14.30;1.00;;;;;;5057765;28;20021;-78
2021/07/03 03:33:09;;;;;;;13.65;9.70;;;14.40;1.00;;;;;;5057285;28;20029;-78
2021/07/03 03:35:35;;;;;;;13.40;9.75;;;14.50;1.00;;;;;;5057967;28;20057;-77
2021/07/03 03:38:00;;;;;;;11.27;9.75;;;14.50;1.00;;;;;;5098788;22;20098;-77
2021/07/03 03:40:27;;;;;;;10.00;8.90;;;14.50;1.00;;;;;;5057414;28;20023;-76
2021/07/03 03:42:53;;;;;;;10.30;9.20;;;14.40;1.00;;;;;;5057405;28;20025;-77
2021/07/03 03:45:19;;;;;;;12.25;9.30;;;14.30;1.00;;;;;;5072701;28;20024;-76
2021/07/03 03:47:45;;;;;;;10.82;9.45;;;14.30;1.00;;;;;;5100591;28;20017;-76
2021/07/03 03:50:11;;;;;;;14.73;9.82;;;14.50;1.00;;;;;;5099121;28;20064;-76
2021/07/03 03:52:37;;;;;;;11.15;9.52;;;14.60;1.00;;;;;;5100502;28;20032;-75
2021/07/03 03:55:03;;;;;;;11.52;10.15;;;14.60;1.00;;;;;;5088325;28;20040;-77
2021/07/03 03:57:30;;;;;;;11.13;9.90;;;14.50;1.00;;;;;;5091278;28;20027;-77
2021/07/03 03:59:57;;;;;;;12.15;9.98;;;14.40;1.00;;;;;;5058672;28;20016;-77
2021/07/03 04:02:23;;;;;;;10.73;9.77;;;14.40;1.00;;;;;;5057496;28;20413;-77
2021/07/03 04:04:52;;;;;;;13.90;10.13;;;14.40;1.00;;;;;;5080735;28;20000;-76
2021/07/03 04:07:19;;;;;;;12.23;9.35;;;14.50;1.00;;;;;;5100396;28;20042;-76
2021/07/03 04:09:45;;;;;;;11.00;9.48;;;14.50;1.00;;;;;;5076346;28;20045;-77
2021/07/03 04:12:12;;;;;;;11.45;9.02;;;14.60;1.00;;;;;;5075379;28;20081;-77
2021/07/03 04:14:37;;;;;;;10.10;9.07;;;14.60;1.00;;;;;;5075191;28;20016;-77
2021/07/03 04:17:04;;;;;;;15.57;10.48;;;14.60;1.00;;;;;;5074611;28;20383;-77
2021/07/03 04:19:29;;;;;;;10.27;9.13;;;14.60;1.00;;;;;;5075067;28;20165;-77
2021/07/03 04:21:55;;;;;;;13.63;9.48;;;14.60;1.00;;;;;;5081802;28;20472;-77
2021/07/03 04:24:21;;;;;;;10.98;9.55;;;14.70;1.00;;;;;;5085808;28;20093;-76
2021/07/03 04:26:46;;;;;;;11.32;9.20;;;15.00;1.00;;;;;;5099617;28;20043;-76
2021/07/03 04:29:12;;;;;;;11.15;8.52;;;15.20;1.00;;;;;;5100355;28;20032;-76
2021/07/03 04:31:37;;;;;;;11.50;9.05;;;15.50;1.00;;;;;;5082732;28;20019;-75
2021/07/03 04:34:03;;;;;;;10.43;9.13;;;15.60;1.00;;;;;;5099283;28;20210;-75
2021/07/03 04:36:29;;;;;;;9.30;8.43;;;15.80;1.00;;;;;;5099417;28;20076;-75
2021/07/03 04:38:55;;;;;;;11.07;8.85;;;15.90;1.00;;;;;;5099982;28;20030;-75
2021/07/03 04:41:21;;;;;;;10.43;8.10;;;15.90;1.00;;;;;;5100256;28;20052;-75
2021/07/03 04:43:46;;;;;;;11.32;8.85;;;16.10;99.90;;;;;;5094415;28;20056;-75
2021/07/03 04:46:12;;;;;;;8.73;7.82;;;16.40;99.90;;;;;;5076068;28;20450;-76
2021/07/03 04:48:38;;;;;;;8.70;7.82;;;16.70;99.90;;;;;;5075556;28;20027;-76
2021/07/03 04:51:03;;;;;;;8.82;7.88;;;17.00;99.90;;;;;;5075531;28;20097;-76
2021/07/03 04:53:29;;;;;;;8.18;7.38;;;17.30;99.90;;;;;;5074898;28;20468;-77
2021/07/03 04:55:54;;;;;;;7.70;7.00;;;17.80;99.90;;;;;;5074896;28;20024;-76
2021/07/03 04:58:20;;;;;;;8.43;7.30;;;18.30;99.90;;;;;;5075206;28;20020;-76
2021/07/03 05:00:46;;;;;;;8.65;7.75;;;18.80;99.90;;;;;;5075485;28;20469;-77
2021/07/03 05:03:11;;;;;;;7.80;6.45;;;19.20;99.90;;;;;;5057996;28;20021;-77
2021/07/03 05:05:37;;;;;;;7.25;6.55;;;19.80;99.90;;;;;;5075407;28;20437;-77
2021/07/03 05:08:03;;;;;;;7.55;6.85;;;20.30;99.90;;;;;;5076824;28;20093;-76
2021/07/03 05:10:28;;;;;;;6.43;5.82;;;21.20;99.90;;;;;;5064861;28;20031;-77
2021/07/03 05:12:55;;;;;;;7.00;6.10;;;20.80;99.90;;;;;;5083239;28;20077;-78
2021/07/03 05:15:21;;;;;;;8.73;6.13;;;20.40;99.90;;;;;;5077455;28;20052;-77
2021/07/03 05:17:47;;;;;;;7.22;6.22;;;20.10;99.90;;;;;;5067628;28;20021;-78
2021/07/03 05:20:13;;;;;;;7.07;6.22;;;20.30;99.90;;;;;;5087671;28;20025;-77
2021/07/03 05:22:39;;;;;;;6.45;5.80;;;21.50;99.90;;;;;;5077686;28;20048;-77
2021/07/03 05:25:05;;;;;;;6.82;5.80;;;21.10;99.90;;;;;;5078528;28;20417;-77
2021/07/03 05:27:31;;;;;;;6.38;5.78;;;20.90;99.90;;;;;;5076442;28;20024;-77
2021/07/03 05:29:56;;;;;;;7.55;6.80;;;20.90;99.90;;;;;;5076175;28;20504;-77
2021/07/03 05:32:22;;;;;;;6.40;5.45;;;22.30;99.90;;;;;;5074792;28;20024;-77
2021/07/03 05:34:47;;;;;;;8.02;7.28;;;22.90;99.90;;;;;;5074272;28;20070;-77
2021/07/03 05:37:13;;;;;;;6.70;5.85;;;22.00;99.90;;;;;;5056179;28;20306;-77
2021/07/03 05:39:38;;;;;;;6.90;6.30;;;22.30;99.90;;;;;;5074064;28;20028;-77
2021/07/03 05:42:04;;;;;;;10.95;6.20;;;23.10;99.90;;;;;;5074245;28;20115;-77
2021/07/03 05:44:30;;;;;;;7.40;6.05;;;22.90;99.90;;;;;;5074278;28;20027;-77
2021/07/03 05:46:55;;;;;;;7.07;6.47;;;22.50;99.90;;;;;;5073698;28;20035;-76
2021/07/03 05:49:21;;;;;;;7.28;5.22;;;23.10;99.90;;;;;;5077789;28;20035;-77
2021/07/03 05:51:47;;;;;;;6.00;5.40;;;22.50;99.90;;;;;;5040396;28;20397;-77
2021/07/03 05:54:14;;;;;;;7.20;6.22;;;22.10;99.90;;;;;;5074848;28;20032;-76
2021/07/03 05:56:40;;;;;;;6.28;5.68;;;22.70;99.90;;;;;;5074544;28;20032;-77
2021/07/03 05:59:05;;;;;;;7.47;6.78;;;23.30;99.90;;;;;;5075160;28;20390;-77
2021/07/03 06:01:31;;;;;;;7.18;6.20;;;23.90;99.90;;;;;;5056878;28;20031;-77
2021/07/03 06:03:56;;;;;;;7.85;5.95;;;24.00;99.90;;;;;;5075193;28;20020;-77
2021/07/03 06:06:22;;;;;;;8.30;6.05;;;24.00;99.90;;;;;;5074520;28;20029;-77
2021/07/03 06:08:47;;;;;;;6.70;6.10;;;22.50;99.90;;;;;;5073614;28;20086;-75
2021/07/03 06:11:15;;;;;;;10.43;7.28;;;23.40;99.90;;;;;;5074938;28;20421;-76
2021/07/03 06:13:40;;;;;;;6.22;5.63;;;23.50;99.90;;;;;;5075534;28;20516;-77
2021/07/03 06:16:06;;;;;;;7.72;6.07;;;23.80;99.90;;;;;;5057347;28;20067;-76
2021/07/03 06:18:32;;;;;;;6.65;6.03;;;24.00;99.90;;;;;;5074597;28;20222;-77
2021/07/03 06:20:58;;;;;;;7.18;6.57;;;23.90;99.90;;;;;;5073648;28;20489;-76
2021/07/03 06:23:25;;;;;;;6.53;5.93;;;24.20;99.80;;;;;;5076183;28;20568;-77
2021/07/03 06:25:51;;;;;;;7.40;6.70;;;24.00;99.90;;;;;;5076984;28;20027;-76
2021/07/03 06:28:16;;;;;;;6.63;5.85;;;23.80;99.90;;;;;;5057697;28;20103;-77
2021/07/03 06:30:42;;;;;;;7.30;6.57;;;23.40;99.90;;;;;;5077245;28;20024;-76
2021/07/03 06:33:08;;;;;;;6.88;6.28;;;22.70;99.90;;;;;;5077047;28;20091;-77
2021/07/03 06:35:33;;;;;;;7.97;7.18;;;21.80;99.90;;;;;;5076935;28;20024;-78
2021/07/03 06:37:59;;;;;;;8.43;6.13;;;21.30;99.90;;;;;;5058915;28;20035;-77
2021/07/03 06:40:24;;;;;;;7.78;6.97;;;20.80;99.90;;;;;;5073567;28;20058;-76
2021/07/03 06:42:50;;;;;;;7.22;6.50;;;20.60;99.90;;;;;;5076356;28;20025;-77
2021/07/03 06:45:16;;;;;;;9.65;7.18;;;20.70;99.90;;;;;;5061390;28;20040;-77
2021/07/03 06:47:41;;;;;;;7.38;6.55;;;20.60;99.90;;;;;;5078069;28;20062;-77
2021/07/03 06:50:07;;;;;;;7.38;6.75;;;20.50;99.90;;;;;;5078793;28;20543;-76
2021/07/03 06:52:34;;;;;;;6.93;6.22;;;20.70;99.90;;;;;;5079089;28;20347;-75
2021/07/03 06:55:00;;;;;;;7.43;6.82;;;20.40;99.90;;;;;;5076570;28;20082;-77
2021/07/03 06:57:25;;;;;;;7.85;6.82;;;20.60;99.90;;;;;;5059207;28;20032;-76
2021/07/03 06:59:51;;;;;;;9.13;6.88;;;20.90;99.90;;;;;;5076494;28;20059;-76
2021/07/03 07:02:18;;;;;;;7.93;6.82;;;21.00;99.90;;;;;;5074490;28;20512;-77
2021/07/03 07:04:44;;;;;;;6.90;6.20;;;21.10;99.90;;;;;;5056459;28;20078;-78
2021/07/03 07:07:09;;;;;;;7.35;6.05;;;21.20;99.90;;;;;;5073103;28;20032;-77
2021/07/03 07:09:35;;;;;;;8.18;6.70;;;21.30;99.90;;;;;;5057719;28;20028;-77
2021/07/03 07:12:01;;;;;;;6.90;6.20;;;21.30;99.90;;;;;;5074574;28;20024;-76
2021/07/03 07:14:27;;;;;;;6.40;5.80;;;21.20;99.90;;;;;;5073665;28;20027;-76
2021/07/03 07:16:53;;;;;;;8.00;6.53;;;21.40;99.90;;;;;;5056362;28;20059;-76
2021/07/03 07:19:19;;;;;;;7.90;6.40;;;21.50;99.90;;;;;;5056195;28;20321;-77
2021/07/03 07:21:45;;;;;;;6.90;6.25;;;21.30;99.90;;;;;;5073138;28;20074;-77
2021/07/03 07:24:11;;;;;;;7.78;6.63;;;21.70;99.90;;;;;;5072951;28;20028;-77
2021/07/03 07:26:38;;;;;;;7.43;6.63;;;21.60;99.90;;;;;;5077781;28;20068;-76
2021/07/03 07:29:03;;;;;;;6.78;6.03;;;21.80;99.90;;;;;;5077261;28;20027;-76
2021/07/03 07:31:29;;;;;;;6.75;6.03;;;21.70;99.90;;;;;;5094543;28;20013;-75
2021/07/03 07:33:55;;;;;;;16.17;6.25;;;21.50;99.90;;;;;;5095289;28;20091;-76
2021/07/03 07:36:20;;;;;;;6.43;5.82;;;21.60;99.90;;;;;;5094420;28;20068;-77
2021/07/03 07:38:46;;;;;;;7.38;6.60;;;21.70;99.90;;;;;;5075902;28;20075;-76
2021/07/03 07:41:11;;;;;;;7.30;6.53;;;22.30;99.90;;;;;;5075745;28;20058;-77
2021/07/03 07:43:37;;;;;;;7.70;6.05;;;22.50;99.90;;;;;;5057628;28;20393;-77
2021/07/03 07:46:03;;;;;;;8.05;6.00;;;22.60;99.90;;;;;;5063133;28;20024;-77
2021/07/03 07:48:30;;;;;;;7.10;6.40;;;22.60;99.90;;;;;;5074649;28;20074;-77
2021/07/03 07:50:57;;;;;;;5.93;5.43;;;22.40;99.90;;;;;;5066700;28;20025;-76
2021/07/03 07:53:24;;;;;;;6.18;5.45;;;22.10;99.90;;;;;;5078922;28;20051;-77
2021/07/03 07:55:49;;;;;;;6.10;5.50;;;22.00;99.90;;;;;;5072187;28;20020;-77
2021/07/03 07:58:15;;;;;;;6.85;6.00;;;22.10;99.90;;;;;;5054697;28;20135;-79
2021/07/03 08:00:41;;;;;;;6.90;6.20;;;22.20;99.90;;;;;;5072511;28;20020;-77
2021/07/03 08:03:07;;;;;;;6.68;5.95;;;22.50;99.90;;;;;;5072996;28;20421;-77
2021/07/03 08:05:33;;;;;;;8.18;6.35;;;22.60;99.90;;;;;;5053856;28;20103;-76
2021/07/03 08:07:59;;;;;;;6.97;5.18;;;22.80;99.90;;;;;;5072179;28;20112;-77
2021/07/03 08:10:27;;;;;;;6.38;5.78;;;22.70;99.90;;;;;;5076274;28;20111;-76
2021/07/03 08:12:54;;;;;;;6.93;5.45;;;22.70;99.90;;;;;;5075750;28;20052;-76
2021/07/03 08:15:20;;;;;;;5.93;5.40;;;23.30;99.90;;;;;;5075418;28;20028;-77
2021/07/03 08:17:45;;;;;;;6.65;6.03;;;23.60;99.90;;;;;;5075838;28;20073;-78
2021/07/03 08:20:16;;;;;;;6.30;5.70;;;23.70;99.90;;;;;;5077398;28;20487;-76
2021/07/03 08:22:42;;;;;;;;;;;23.50;99.90;;;;;;5076444;28;20071;-77
2021/07/03 08:25:09;;;;;;;5.68;5.20;;;23.70;99.90;;;;;;5078857;28;19905;-77
2021/07/03 08:27:34;;;;;;;5.47;4.97;;;23.90;99.90;;;;;;5079628;28;20030;-77
2021/07/03 08:30:00;;;;;;;5.63;5.13;;;24.00;99.90;;;;;;5060765;28;20119;-77
2021/07/03 08:32:25;;;;;;;5.30;4.80;;;23.90;99.90;;;;;;5075597;28;20031;-77
2021/07/03 08:34:51;;;;;;;6.93;5.00;;;23.80;99.90;;;;;;5079906;28;20033;-78
2021/07/03 08:37:17;;;;;;;6.82;5.30;;;23.40;99.90;;;;;;5076161;28;20505;-77
2021/07/03 08:39:43;;;;;;;6.18;5.57;;;23.50;99.90;;;;;;5077676;28;20066;-77
2021/07/03 08:42:09;;;;;;;6.18;5.18;;;23.70;99.90;;;;;;5077594;28;20021;-76
2021/07/03 08:44:35;;;;;;;6.85;5.25;;;24.00;99.90;;;;;;5077071;28;20031;-76
2021/07/03 08:47:01;;;;;;;5.53;5.03;;;24.00;98.80;;;;;;5077979;28;20052;-75
2021/07/03 08:49:26;;;;;;;4.57;4.18;;;24.00;97.20;;;;;;5059192;28;20111;-76
2021/07/03 08:51:54;;;;;;;5.13;4.63;;;24.00;96.50;;;;;;5057966;28;20119;-78
2021/07/03 08:54:19;;;;;;;6.35;4.20;;;24.00;96.10;;;;;;5057375;28;20025;-77
2021/07/03 08:56:47;;;;;;;7.50;4.82;;;24.10;95.20;;;;;;5079727;28;20025;-78
2021/07/03 08:59:19;;;;;;;4.22;3.90;;;24.10;95.60;;;;;;5075528;28;20070;-79
2021/07/03 09:01:49;;;;;;;5.47;4.97;;;24.20;94.40;;;;;;5075331;28;20024;-77
2021/07/03 09:04:15;;;;;;;7.22;5.05;;;24.30;94.30;;;;;;5076635;28;20029;-77
2021/07/03 09:06:41;;;;;;;4.25;3.85;;;24.40;94.20;;;;;;5076231;28;20060;-77
2021/07/03 09:09:07;;;;;;;5.20;3.88;;;24.30;93.90;;;;;;5079757;28;20021;-77
2021/07/03 09:11:34;;;;;;;4.53;3.92;;;24.40;92.10;;;;;;5056272;28;20074;-77
2021/07/03 09:14:07;;;;;;;5.85;4.60;;;24.50;92.10;;;;;;5074949;28;20043;-77
2021/07/03 09:16:35;;;;;;;3.80;3.50;;;24.50;91.30;;;;;;5058384;28;20024;-77
2021/07/03 09:19:02;;;;;;;4.15;3.75;;;24.40;91.40;;;;;;5074066;28;20024;-77
2021/07/03 09:21:29;;;;;;;4.72;4.32;;;24.40;91.30;;;;;;5059171;28;20024;-77
2021/07/03 09:23:54;;;;;;;4.82;4.00;;;24.50;90.60;;;;;;5078427;28;20044;-77
2021/07/03 09:26:20;;;;;;;4.15;3.75;;;24.40;90.30;;;;;;5059312;28;20029;-77
2021/07/03 09:28:48;;;;;;;4.38;3.97;;;24.20;89.40;;;;;;5077512;28;20024;-77
2021/07/03 09:31:19;;;;;;;4.28;3.88;;;24.20;89.80;;;;;;5074564;28;20153;-78
2021/07/03 09:33:54;;;;;;;4.35;3.95;;;24.40;90.00;;;;;;5078255;28;20382;-77
2021/07/03 09:38:51;;;;;;;4.75;4.35;;;24.70;88.50;;;;;;5095462;22;20053;-78
2021/07/03 09:41:23;;;;;;;4.53;4.15;;;24.70;86.50;;;;;;5084518;28;20050;-75
2021/07/03 09:43:48;;;;;;;4.20;3.80;;;24.90;88.30;;;;;;5068943;28;20039;-77
2021/07/03 09:46:52;;;;;;;4.55;4.15;;;25.10;83.80;;;;;;5056638;28;20021;-77
2021/07/03 09:49:30;;;;;;;4.80;4.30;;;25.20;82.40;;;;;;5030113;28;20037;-77
2021/07/03 09:51:59;;;;;;;5.03;4.40;;;25.10;79.70;;;;;;5053830;28;20025;-78
2021/07/03 09:54:29;;;;;;;5.78;4.03;;;25.20;78.50;;;;;;5036855;28;20029;-77
2021/07/03 09:56:59;;;;;;;4.40;4.00;;;25.30;77.30;;;;;;5053862;28;20029;-77
2021/07/03 09:59:29;;;;;;;5.43;4.18;;;25.40;99.90;;;;;;5035760;28;20120;-78
2021/07/03 10:01:55;;;;;;;4.20;3.80;;;25.20;99.90;;;;;;5035910;28;20478;-77
2021/07/03 10:04:20;;;;;;;4.72;4.30;;;25.20;99.90;;;;;;5054442;28;20033;-78
2021/07/03 10:06:49;;;;;;;3.67;3.38;;;25.20;99.90;;;;;;5053038;28;20028;-77
2021/07/03 10:09:44;;;;;;;5.57;4.18;;;25.40;99.90;;;;;;5053632;28;20025;-77
2021/07/03 10:12:14;;;;;;;4.28;3.90;;;25.40;99.90;;;;;;5035684;28;20033;-77
2021/07/03 10:14:43;;;;;;;4.95;4.00;;;25.40;99.90;;;;;;5036462;28;20048;-78
2021/07/03 10:17:09;;;;;;;4.88;3.60;;;25.20;99.90;;;;;;5036125;28;20544;-78
2021/07/03 10:19:37;;;;;;;4.78;3.78;;;25.10;99.90;;;;;;5054958;28;20107;-78
2021/07/03 10:22:22;;;;;;;4.80;4.28;;;25.10;99.90;;;;;;5036061;28;20029;-76
2021/07/03 10:24:52;;;;;;;3.97;3.60;;;25.20;99.90;;;;;;5053633;28;20427;-79
2021/07/03 10:27:20;;;;;;;5.50;3.77;;;25.40;99.90;;;;;;5035739;28;20110;-78
2021/07/03 10:29:47;;;;;;;4.75;4.28;;;25.50;99.90;;;;;;5036028;28;20136;-77
2021/07/03 10:32:23;;;;;;;4.28;3.88;;;25.90;99.90;;;;;;5034844;28;20052;-78
2021/07/03 10:34:49;;;;;;;4.88;4.28;;;26.10;99.90;;;;;;5035228;28;20101;-77
2021/07/03 10:37:27;;;;;;;4.28;3.88;;;26.00;99.90;;;;;;5053108;28;20521;-78
2021/07/03 10:39:53;;;;;;;4.20;3.80;;;25.70;99.90;;;;;;5035724;28;20017;-77
2021/07/03 10:42:27;;;;;;;6.55;3.60;;;25.70;99.90;;;;;;5052989;28;20100;-76
2021/07/03 10:44:52;;;;;;;5.07;3.70;;;25.90;99.90;;;;;;5035326;28;20025;-79
2021/07/03 10:47:18;;;;;;;4.50;3.47;;;25.90;99.90;;;;;;5053413;28;20025;-78
2021/07/03 10:49:43;;;;;;;3.65;3.28;;;25.90;99.90;;;;;;5036592;28;20028;-78
2021/07/03 10:52:12;;;;;;;4.90;3.80;;;25.80;99.90;;;;;;5035478;28;20025;-78
2021/07/03 10:54:38;;;;;;;5.75;3.97;;;26.00;99.90;;;;;;5053291;28;20025;-78
2021/07/03 10:57:04;;;;;;;3.80;3.50;;;26.20;99.50;;;;;;5035650;28;20382;-78
2021/07/03 10:59:38;;;;;;;4.40;3.60;;;26.10;99.90;;;;;;5035580;28;20025;-78
2021/07/03 11:02:18;;;;;;;3.85;3.55;;;26.10;99.90;;;;;;5035799;28;20440;-80
2021/07/03 11:04:50;;;;;;;3.80;3.50;;;26.20;96.70;;;;;;5054134;28;20017;-78
2021/07/03 11:07:20;;;;;;;3.70;3.40;;;25.90;96.90;;;;;;5035873;28;20036;-79
2021/07/03 11:09:47;;;;;;;3.88;3.38;;;26.00;94.00;;;;;;5035790;28;20040;-78
2021/07/03 11:12:17;;;;;;;3.97;3.53;;;25.90;91.80;;;;;;5068224;28;20036;-76
2021/07/03 11:14:53;;;;;;;6.03;3.67;;;26.10;91.00;;;;;;5069029;28;20032;-77
2021/07/03 11:17:21;;;;;;;5.15;3.53;;;26.40;90.60;;;;;;5053596;28;20191;-77
2021/07/03 11:19:49;;;;;;;3.53;3.22;;;26.70;95.80;;;;;;5052847;28;20102;-78
2021/07/03 11:22:16;;;;;;;4.70;3.38;;;26.60;80.80;;;;;;5052072;28;20017;-78
2021/07/03 11:24:47;;;;;;;5.13;3.72;;;26.50;81.90;;;;;;5052552;28;20020;-77
2021/07/03 11:27:34;;;;;;;4.47;3.47;;;26.30;80.70;;;;;;5052516;28;20035;-77
2021/07/03 11:30:02;;;;;;;3.65;3.35;;;26.40;79.00;;;;;;5052641;28;20033;-78
2021/07/03 11:32:28;;;;;;;4.55;3.30;;;26.40;72.00;;;;;;5034761;28;20394;-79
2021/07/03 11:35:03;;;;;;;4.97;2.92;;;26.40;73.80;;;;;;5035301;28;20387;-77
2021/07/03 11:37:30;;;;;;;5.75;5.25;;;26.70;68.80;;;;;;5052477;28;20025;-77
2021/07/03 11:39:57;;;;;;;3.20;2.97;;;26.80;68.40;;;;;;5052577;28;20074;-77
2021/07/03 11:42:32;;;;;;;3.10;2.90;;;26.80;63.50;;;;;;5053888;28;20029;-79
2021/07/03 11:44:58;;;;;;;3.40;3.10;;;26.90;62.00;;;;;;5038911;28;20024;-78
2021/07/03 11:47:45;;;;;;;6.10;3.05;;;26.80;57.10;;;;;;5039152;28;20406;-80
2021/07/03 11:50:32;;;;;;;4.90;4.40;;;27.00;55.00;;;;;;5056769;28;20113;-77
2021/07/03 11:53:00;;;;;;;4.47;3.50;;;27.00;48.40;;;;;;5039233;28;20080;-77
2021/07/03 11:55:31;;;;;;;3.55;3.25;;;27.10;51.30;;;;;;5056544;28;20025;-77
2021/07/03 11:57:57;;;;;;;3.40;3.10;;;27.10;49.60;;;;;;5037992;28;20021;-80
2021/07/03 12:00:32;;;;;;;3.08;2.88;;;27.10;52.50;;;;;;5055941;28;20518;-76
2021/07/03 12:02:58;;;;;;;3.75;3.45;;;27.10;47.40;;;;;;5040601;28;20021;-76
2021/07/03 12:05:29;;;;;;;3.33;3.03;;;27.20;45.20;;;;;;5056049;28;20025;-76
2021/07/03 12:07:59;;;;;;;3.58;3.00;;;27.20;49.10;;;;;;5038240;28;20025;-78
2021/07/03 12:10:56;;;;;;;3.65;3.30;;;27.20;52.40;;;;;;5056359;28;20025;-78
2021/07/03 12:13:24;;;;;;;3.40;3.10;;;27.40;47.40;;;;;;5055864;28;20035;-77
2021/07/03 12:15:59;;;;;;;3.10;2.90;;;27.60;45.20;;;;;;5057213;28;20021;-77
2021/07/03 12:18:29;;;;;;;3.65;3.35;;;27.60;45.40;;;;;;5056357;28;20020;-78
2021/07/03 12:21:06;;;;;;;4.23;3.20;;;27.30;41.60;;;;;;5055758;28;20032;-78
2021/07/03 12:23:33;;;;;;;3.55;3.08;;;27.10;37.30;;;;;;5055941;28;20021;-77
2021/07/03 12:26:00;;;;;;;3.63;3.33;;;26.80;35.40;;;;;;5039029;28;20021;-78
2021/07/03 12:28:26;;;;;;;3.20;2.90;;;26.50;35.00;;;;;;5056438;28;20112;-77
2021/07/03 12:30:51;;;;;;;3.90;3.60;;;26.30;34.70;;;;;;5037913;28;20494;-77
2021/07/03 12:33:17;;;;;;;3.25;2.95;;;26.30;34.60;;;;;;5056146;28;20029;-78
2021/07/03 12:35:52;;;;;;;3.85;3.55;;;26.70;34.30;;;;;;5056447;28;20041;-77
2021/07/03 12:38:27;;;;;;;3.42;3.00;;;26.90;35.40;;;;;;5039530;28;20040;-77
2021/07/03 12:40:54;;;;;;;4.95;2.95;;;26.80;31.50;;;;;;5037291;28;20033;-77
2021/07/03 12:43:29;;;;;;;3.40;3.10;;;26.90;30.90;;;;;;5055669;28;20021;-77
2021/07/03 12:46:04;;;;;;;3.40;3.05;;;27.00;37.50;;;;;;5037036;28;20075;-77
2021/07/03 12:48:38;;;;;;;3.30;3.00;;;26.40;27.60;;;;;;5036885;28;20035;-77